createdAt,value
2017-06-05T00:00:15.742Z,4.00
2017-06-05T00:02:41.932Z,3.03
2017-06-05T00:05:08.169Z,2.70
2017-06-05T00:07:34.434Z,2.00
2017-06-05T00:10:00.603Z,2.47
2017-06-05T00:12:26.778Z,2.33
2017-06-05T00:14:52.993Z,2.70
2017-06-05T00:17:19.878Z,1.70
2017-06-05T00:19:46.102Z,2.80
2017-06-05T00:22:12.307Z,1.97
2017-06-05T00:24:38.517Z,1.87
2017-06-05T00:27:04.699Z,2.50
2017-06-05T00:29:31.026Z,2.23
2017-06-05T00:31:57.251Z,2.10
2017-06-05T00:34:23.483Z,2.77
2017-06-05T00:36:49.678Z,2.10
2017-06-05T00:39:15.969Z,1.77
2017-06-05T00:41:42.416Z,1.87
2017-06-05T00:44:08.628Z,4.40
2017-06-05T00:46:34.881Z,1.60
2017-06-05T00:49:01.070Z,3.07
2017-06-05T00:51:27.285Z,2.43
2017-06-05T00:53:53.577Z,2.20
2017-06-05T00:56:19.742Z,2.60
2017-06-05T00:58:46.009Z,1.70
2017-06-05T01:01:12.248Z,3.17
2017-06-05T01:03:38.462Z,3.70
2017-06-05T01:06:04.737Z,1.50
2017-06-05T01:08:30.966Z,1.60
2017-06-05T01:10:57.246Z,1.63
2017-06-05T01:13:23.441Z,2.40
2017-06-05T01:15:49.733Z,1.40
2017-06-05T01:18:16.025Z,1.60
2017-06-05T01:20:42.285Z,1.53
2017-06-05T01:23:08.550Z,2.90
2017-06-05T01:25:35.400Z,3.90
2017-06-05T01:28:01.657Z,1.47
2017-06-05T01:30:27.870Z,1.77
2017-06-05T01:32:54.114Z,1.67
2017-06-05T01:35:20.341Z,2.70
2017-06-05T01:37:46.723Z,2.40
2017-06-05T01:40:12.992Z,1.30
2017-06-05T01:42:39.156Z,1.50
2017-06-05T01:45:05.359Z,1.57
2017-06-05T01:47:31.562Z,1.50
2017-06-05T01:49:57.806Z,1.40
2017-06-05T01:52:24.066Z,2.33
2017-06-05T01:54:50.237Z,2.00
2017-06-05T01:57:16.501Z,1.60
2017-06-05T01:59:42.731Z,1.67
2017-06-05T02:02:09.022Z,1.97
2017-06-05T02:04:35.206Z,2.03
2017-06-05T02:07:01.480Z,1.73
2017-06-05T02:09:27.718Z,1.80
2017-06-05T02:11:53.927Z,1.50
2017-06-05T02:14:20.349Z,1.50
2017-06-05T02:16:46.545Z,1.60
2017-06-05T02:19:12.722Z,1.53
2017-06-05T02:21:38.939Z,2.00
2017-06-05T02:24:05.105Z,2.47
2017-06-05T02:26:31.414Z,1.40
2017-06-05T02:28:57.629Z,1.40
2017-06-05T02:31:23.838Z,2.53
2017-06-05T02:33:50.067Z,1.57
2017-06-05T02:36:16.234Z,1.93
2017-06-05T02:38:42.505Z,2.53
2017-06-05T02:41:08.702Z,1.70
2017-06-05T02:43:34.875Z,1.50
2017-06-05T02:46:01.090Z,1.83
2017-06-05T02:48:27.297Z,1.80
2017-06-05T02:50:53.600Z,1.60
2017-06-05T02:53:19.834Z,2.17
2017-06-05T02:55:46.047Z,1.60
2017-06-05T02:58:12.209Z,1.60
2017-06-05T03:00:38.451Z,1.20
2017-06-05T03:03:04.739Z,2.23
2017-06-05T03:05:30.906Z,1.30
2017-06-05T03:07:57.118Z,1.97
2017-06-05T03:10:23.294Z,1.87
2017-06-05T03:12:49.497Z,2.87
2017-06-05T03:15:15.706Z,1.73
2017-06-05T03:17:41.884Z,1.63
2017-06-05T03:20:08.098Z,1.53
2017-06-05T03:22:34.274Z,1.97
2017-06-05T03:25:00.546Z,1.50
2017-06-05T03:27:26.730Z,1.50
2017-06-05T03:29:52.897Z,1.77
2017-06-05T03:32:19.098Z,1.50
2017-06-05T03:34:45.261Z,2.40
2017-06-05T03:37:11.491Z,1.40
2017-06-05T03:39:37.697Z,1.30
2017-06-05T03:42:03.892Z,2.07
2017-06-05T03:44:30.161Z,2.27
2017-06-05T03:46:56.345Z,1.90
2017-06-05T03:49:22.552Z,2.17
2017-06-05T03:51:48.766Z,1.40
2017-06-05T03:54:14.953Z,1.67
2017-06-05T03:56:41.157Z,2.40
2017-06-05T03:59:07.322Z,1.93
2017-06-05T04:01:33.572Z,2.57
2017-06-05T04:03:59.801Z,1.87
2017-06-05T04:06:26.476Z,2.10
2017-06-05T04:08:52.670Z,1.90
2017-06-05T04:11:18.840Z,1.73
2017-06-05T04:13:45.552Z,1.20
2017-06-05T04:16:11.786Z,2.20
2017-06-05T04:18:37.978Z,2.33
2017-06-05T04:21:04.173Z,8.03
2017-06-05T04:23:30.354Z,12.23
2017-06-05T04:25:56.566Z,9.77
2017-06-05T04:28:22.777Z,5.53
2017-06-05T04:30:48.987Z,9.30
2017-06-05T04:33:15.318Z,7.57
2017-06-05T04:35:41.549Z,10.80
2017-06-05T04:38:07.802Z,12.40
2017-06-05T04:40:33.978Z,8.57
2017-06-05T04:43:00.206Z,8.60
2017-06-05T04:45:26.457Z,11.07
2017-06-05T04:47:52.651Z,7.57
2017-06-05T04:50:19.388Z,7.23
2017-06-05T04:52:45.581Z,7.63
2017-06-05T04:55:11.798Z,9.70
2017-06-05T04:57:38.035Z,8.10
2017-06-05T05:00:04.270Z,7.37
2017-06-05T05:02:30.441Z,9.03
2017-06-05T05:04:56.654Z,6.43
2017-06-05T05:07:22.873Z,9.40
2017-06-05T05:09:49.173Z,9.70
2017-06-05T05:12:15.341Z,11.70
2017-06-05T05:14:41.570Z,12.50
2017-06-05T05:17:07.872Z,8.83
2017-06-05T05:19:34.050Z,10.83
2017-06-05T05:22:00.300Z,9.43
2017-06-05T05:24:26.557Z,7.33
2017-06-05T05:26:52.746Z,9.87
2017-06-05T05:29:19.028Z,11.50
2017-06-05T05:31:45.310Z,9.47
2017-06-05T05:34:11.486Z,9.00
2017-06-05T05:36:37.797Z,6.33
2017-06-05T05:39:03.992Z,6.17
2017-06-05T05:41:30.315Z,8.13
2017-06-05T05:43:56.535Z,5.57
2017-06-05T05:46:22.713Z,5.90
2017-06-05T05:48:48.930Z,8.10
2017-06-05T05:51:15.128Z,9.00
2017-06-05T05:53:41.415Z,5.87
2017-06-05T05:56:07.666Z,8.80
2017-06-05T05:58:33.961Z,5.30
2017-06-05T06:01:00.188Z,8.80
2017-06-05T06:03:26.407Z,5.20
2017-06-05T06:05:52.746Z,7.17
2017-06-05T06:08:19.963Z,5.90
2017-06-05T06:10:46.150Z,4.10
2017-06-05T06:13:12.369Z,5.07
2017-06-05T06:15:38.540Z,6.13
2017-06-05T06:18:04.753Z,5.77
2017-06-05T06:20:31.098Z,6.23
2017-06-05T06:22:57.354Z,2.87
2017-06-05T06:25:23.517Z,4.87
2017-06-05T06:27:49.733Z,9.20
2017-06-05T06:30:15.964Z,5.87
2017-06-05T06:32:42.291Z,7.60
2017-06-05T06:35:08.548Z,5.70
2017-06-05T06:37:34.761Z,4.63
2017-06-05T06:40:00.971Z,4.10
2017-06-05T06:42:27.143Z,5.10
2017-06-05T06:44:53.423Z,3.43
2017-06-05T06:47:19.862Z,3.03
2017-06-05T06:49:46.082Z,4.67
2017-06-05T06:52:12.311Z,3.60
2017-06-05T06:54:38.568Z,3.00
2017-06-05T06:57:04.874Z,3.57
2017-06-05T06:59:32.170Z,6.03
2017-06-05T07:01:58.341Z,9.03
2017-06-05T07:04:24.524Z,4.23
2017-06-05T07:06:50.718Z,6.57
2017-06-05T07:09:17.057Z,4.23
2017-06-05T07:11:44.027Z,3.53
2017-06-05T07:14:10.254Z,6.80
2017-06-05T07:16:36.567Z,4.20
2017-06-05T07:19:02.745Z,3.83
2017-06-05T07:21:29.800Z,7.07
2017-06-05T07:23:56.166Z,7.03
2017-06-05T07:26:23.192Z,6.70
2017-06-05T07:28:49.579Z,2.80
2017-06-05T07:31:15.798Z,2.70
2017-06-05T07:33:42.043Z,2.50
2017-06-05T07:36:08.306Z,8.87
2017-06-05T07:48:14.789Z,4.40
2017-06-05T07:50:41.433Z,5.23
2017-06-05T07:53:07.623Z,3.97
2017-06-05T07:55:33.834Z,5.70
2017-06-05T07:58:00.037Z,5.63
2017-06-05T08:00:26.305Z,2.27
2017-06-05T08:02:52.535Z,3.47
2017-06-05T08:05:18.701Z,1.67
2017-06-05T08:07:44.895Z,2.53
2017-06-05T08:10:11.222Z,2.80
2017-06-05T08:12:38.376Z,4.37
2017-06-05T08:15:04.564Z,2.90
2017-06-05T08:17:30.831Z,2.90
2017-06-05T08:19:57.028Z,4.17
2017-06-05T08:22:23.233Z,1.83
2017-06-05T08:24:49.577Z,2.70
2017-06-05T08:27:15.797Z,5.50
2017-06-05T08:29:42.089Z,2.27
2017-06-05T08:32:08.505Z,2.30
2017-06-05T08:34:34.930Z,2.00
2017-06-05T08:37:01.218Z,3.90
2017-06-05T08:39:27.553Z,2.90
2017-06-05T08:41:53.759Z,3.33
2017-06-05T08:44:20.092Z,3.70
2017-06-05T08:46:46.348Z,4.60
2017-06-05T08:49:12.601Z,4.00
2017-06-05T08:51:38.878Z,3.33
2017-06-05T08:54:05.218Z,3.43
2017-06-05T08:56:31.621Z,4.30
2017-06-05T08:58:57.787Z,3.50
2017-06-05T09:01:23.977Z,3.40
2017-06-05T09:03:50.970Z,3.30
2017-06-05T09:06:17.195Z,3.47
2017-06-05T09:08:43.379Z,3.50
2017-06-05T09:11:09.662Z,3.30
2017-06-05T09:13:36.039Z,6.10
2017-06-05T09:16:02.251Z,3.40
2017-06-05T09:18:28.421Z,3.70
2017-06-05T09:20:54.669Z,3.60
2017-06-05T09:23:20.997Z,2.93
2017-06-05T09:35:27.414Z,2.70
2017-06-05T09:37:53.605Z,4.53
2017-06-05T09:40:20.899Z,2.90
2017-06-05T09:44:07.536Z,4.33
2017-06-05T09:46:33.892Z,2.37
2017-06-05T09:49:00.198Z,3.33
2017-06-05T09:51:26.458Z,5.43
2017-06-05T09:53:52.641Z,3.70
2017-06-05T09:56:18.863Z,2.73
2017-06-05T09:58:45.102Z,3.70
2017-06-05T10:01:11.361Z,3.40
2017-06-05T10:03:37.573Z,7.13
2017-06-05T10:06:04.203Z,4.13
2017-06-05T10:08:30.424Z,3.63
2017-06-05T10:10:56.731Z,3.00
2017-06-05T10:13:22.976Z,7.20
2017-06-05T10:15:49.274Z,4.10
2017-06-05T10:18:15.566Z,4.03
2017-06-05T10:20:41.778Z,3.63
2017-06-05T10:23:08.122Z,3.60
2017-06-05T10:25:35.298Z,3.20
2017-06-05T10:28:01.537Z,7.40
2017-06-05T10:30:27.709Z,3.63
2017-06-05T10:32:53.941Z,6.50
2017-06-05T10:35:20.153Z,3.47
2017-06-05T10:37:46.515Z,3.90
2017-06-05T10:40:12.697Z,5.50
2017-06-05T10:42:38.896Z,3.17
2017-06-05T10:45:06.102Z,3.83
2017-06-05T10:47:32.344Z,5.80
2017-06-05T10:49:58.634Z,4.23
2017-06-05T10:52:24.986Z,3.60
2017-06-05T10:54:51.925Z,1.87
2017-06-05T10:57:18.900Z,5.33
2017-06-05T10:59:45.142Z,3.20
2017-06-05T11:02:11.366Z,3.27
2017-06-05T11:04:37.598Z,3.43
2017-06-05T11:07:03.854Z,3.13
2017-06-05T11:09:31.296Z,2.90
2017-06-05T11:11:59.073Z,2.03
2017-06-05T11:14:25.867Z,4.80
2017-06-05T11:16:55.599Z,3.77
2017-06-05T11:31:30.705Z,3.33
2017-06-05T11:51:41.592Z,2.20
2017-06-05T11:54:09.200Z,4.40
2017-06-05T11:56:38.922Z,3.83
2017-06-05T11:59:06.354Z,4.97
2017-06-05T12:01:37.627Z,4.63
2017-06-05T12:13:05.475Z,4.13
2017-06-05T12:15:35.170Z,3.70
2017-06-05T12:33:18.070Z,2.83
2017-06-05T12:35:47.041Z,4.87
2017-06-05T12:38:14.813Z,2.67
2017-06-05T12:40:43.790Z,3.70
2017-06-05T12:43:12.921Z,3.50
2017-06-05T12:45:41.086Z,3.63
2017-06-05T12:54:04.635Z,3.50
2017-06-05T12:56:33.514Z,2.23
2017-06-05T12:59:02.065Z,2.17
2017-06-05T13:01:32.154Z,5.43
2017-06-05T13:13:11.568Z,6.23
2017-06-05T13:15:45.296Z,5.07
2017-06-05T13:33:03.921Z,3.70
2017-06-05T13:53:13.861Z,5.97
2017-06-05T13:55:42.296Z,3.93
2017-06-05T13:58:09.834Z,4.47
2017-06-05T14:00:37.135Z,3.53
2017-06-05T14:03:04.232Z,3.43
2017-06-05T14:14:27.421Z,2.70
2017-06-05T14:16:53.783Z,4.93
2017-06-05T14:34:03.184Z,2.50
2017-06-05T14:36:29.890Z,3.27
2017-06-05T14:38:56.402Z,1.60
2017-06-05T14:41:22.987Z,3.03
2017-06-05T14:43:50.765Z,5.07
2017-06-05T14:46:17.544Z,2.27
2017-06-05T14:51:46.627Z,2.90
2017-06-05T14:54:14.760Z,2.30
2017-06-05T14:56:42.300Z,2.30
2017-06-05T14:59:14.424Z,2.90
2017-06-05T15:01:42.108Z,1.73
2017-06-05T15:13:16.139Z,2.20
2017-06-05T15:15:43.689Z,2.60
2017-06-05T15:18:11.224Z,2.87
2017-06-05T15:20:44.207Z,3.70
2017-06-05T15:23:12.641Z,2.50
2017-06-05T15:25:40.949Z,2.30
2017-06-05T15:28:18.822Z,2.43
2017-06-05T15:30:47.348Z,3.33
2017-06-05T15:33:14.934Z,5.30
2017-06-05T15:38:45.066Z,3.60
2017-06-05T15:41:19.420Z,3.53
2017-06-05T15:43:47.640Z,4.87
2017-06-05T15:46:14.655Z,2.70
2017-06-05T15:48:42.335Z,1.50
2017-06-05T15:54:08.905Z,4.13
2017-06-05T15:56:36.984Z,2.33
2017-06-05T15:59:05.263Z,5.73
2017-06-05T16:01:39.919Z,7.83
2017-06-05T16:13:14.587Z,9.77
2017-06-05T16:15:42.014Z,4.67
2017-06-05T16:18:09.106Z,4.00
2017-06-05T16:32:22.247Z,5.80
2017-06-05T16:40:48.046Z,5.53
2017-06-05T16:43:14.982Z,3.60
2017-06-05T16:45:41.961Z,2.90
2017-06-05T16:48:08.868Z,2.27
2017-06-05T16:53:32.164Z,2.27
2017-06-05T16:55:59.245Z,2.90
2017-06-05T16:58:26.112Z,4.87
2017-06-05T17:00:52.794Z,2.80
2017-06-05T17:03:19.685Z,3.23
2017-06-05T17:08:49.493Z,4.97
2017-06-05T17:11:24.210Z,5.80
2017-06-05T17:13:51.852Z,4.13
2017-06-05T17:16:18.841Z,2.47
2017-06-05T17:18:46.338Z,2.97
2017-06-05T17:33:01.379Z,3.13
2017-06-05T17:53:10.104Z,6.13
2017-06-05T17:55:37.791Z,3.40
2017-06-05T17:58:04.214Z,3.83
2017-06-05T18:00:31.621Z,3.87
2017-06-05T18:03:07.326Z,2.53
2017-06-05T18:14:26.316Z,2.87
2017-06-05T18:16:53.440Z,3.30
2017-06-05T18:19:20.616Z,2.33
2017-06-05T18:24:50.081Z,4.60
2017-06-05T18:27:17.164Z,3.20
2017-06-05T18:29:49.866Z,4.87
2017-06-05T18:32:18.915Z,4.70
2017-06-05T18:54:57.743Z,1.63
2017-06-05T18:57:24.765Z,2.07
2017-06-05T18:59:51.381Z,2.27
2017-06-05T19:02:18.445Z,2.50
2017-06-05T19:04:45.410Z,1.73
2017-06-05T19:16:02.058Z,2.90
2017-06-05T19:18:29.109Z,3.27
2017-06-05T19:29:51.420Z,5.90
2017-06-05T19:32:19.598Z,5.53
2017-06-05T19:34:46.640Z,3.13
2017-06-05T19:37:13.693Z,1.70
2017-06-05T19:39:40.643Z,2.73
2017-06-05T19:42:07.657Z,2.13
2017-06-05T19:44:35.899Z,4.20
2017-06-05T19:47:03.049Z,2.73
2017-06-05T19:49:30.067Z,2.83
2017-06-05T19:57:50.405Z,5.60
2017-06-05T20:00:17.430Z,2.20
2017-06-05T20:02:44.419Z,8.17
2017-06-05T20:05:11.566Z,3.73
2017-06-05T20:16:50.428Z,2.33
2017-06-05T20:19:17.415Z,3.93
2017-06-05T20:21:50.522Z,2.70
2017-06-05T20:24:17.497Z,6.33
2017-06-05T20:26:44.447Z,1.70
2017-06-05T20:29:11.430Z,1.60
2017-06-05T20:31:38.207Z,2.30
2017-06-05T20:34:05.316Z,1.87
2017-06-05T20:36:32.066Z,2.17
2017-06-05T20:38:58.860Z,1.87
2017-06-05T20:41:25.668Z,2.33
2017-06-05T20:43:52.453Z,3.13
2017-06-05T20:46:18.714Z,4.30
2017-06-05T20:48:44.954Z,1.90
2017-06-05T20:57:04.165Z,2.03
2017-06-05T20:59:30.359Z,2.23
2017-06-05T21:01:56.650Z,3.77
2017-06-05T21:04:22.855Z,2.80
2017-06-05T21:09:51.476Z,2.43
2017-06-05T21:12:17.726Z,1.50
2017-06-05T21:14:43.886Z,3.10
2017-06-05T21:17:10.052Z,1.60
2017-06-05T21:19:36.266Z,2.10
2017-06-05T21:36:45.222Z,2.10
2017-06-05T21:39:11.411Z,3.77
2017-06-05T21:41:37.603Z,2.23
2017-06-05T21:44:03.768Z,2.70
2017-06-05T21:46:29.970Z,2.13
2017-06-05T21:48:56.217Z,1.60
2017-06-05T21:57:15.539Z,1.90
2017-06-05T21:59:41.792Z,2.10
2017-06-05T22:02:07.988Z,1.43
2017-06-05T22:04:34.147Z,2.50
2017-06-05T22:16:15.361Z,1.30
2017-06-05T22:18:41.579Z,1.97
2017-06-05T22:30:53.638Z,1.37
2017-06-05T22:33:19.789Z,2.10
2017-06-05T22:35:46.060Z,1.33
2017-06-05T22:55:51.157Z,1.10
2017-06-05T22:58:17.325Z,1.20
2017-06-05T23:00:43.554Z,1.17
2017-06-05T23:03:09.836Z,1.20
2017-06-05T23:05:36.174Z,1.10
2017-06-05T23:16:51.896Z,1.20
2017-06-05T23:19:18.090Z,1.40
2017-06-05T23:36:26.925Z,1.37
2017-06-05T23:38:53.187Z,1.10
2017-06-05T23:54:14.365Z,1.10
2017-06-05T23:56:40.575Z,1.10
2017-06-05T23:59:06.784Z,1.10
